createdAt,value
2019-03-15T00:00:26.278Z,46.60
2019-03-15T00:02:55.195Z,46.00
2019-03-15T00:05:24.027Z,45.80
2019-03-15T00:07:52.947Z,45.80
2019-03-15T00:10:21.770Z,46.00
2019-03-15T00:12:50.618Z,46.60
2019-03-15T00:15:19.537Z,46.10
2019-03-15T00:17:48.607Z,46.00
2019-03-15T00:20:17.601Z,45.80
2019-03-15T00:22:46.623Z,45.90
2019-03-15T00:25:15.534Z,45.80
2019-03-15T00:27:44.450Z,45.80
2019-03-15T00:30:13.535Z,45.90
2019-03-15T00:32:42.410Z,45.80
2019-03-15T00:35:11.651Z,45.70
2019-03-15T00:37:40.560Z,45.70
2019-03-15T00:40:11.895Z,45.70
2019-03-15T00:42:40.841Z,45.60
2019-03-15T00:45:10.199Z,45.60
2019-03-15T00:47:39.198Z,45.60
2019-03-15T00:50:09.107Z,45.60
2019-03-15T00:52:37.967Z,45.40
2019-03-15T00:55:07.507Z,45.40
2019-03-15T00:57:36.489Z,45.40
2019-03-15T01:00:07.383Z,45.60
2019-03-15T01:02:36.629Z,45.60
2019-03-15T01:05:06.503Z,45.60
2019-03-15T01:07:35.483Z,45.60
2019-03-15T01:10:04.809Z,45.70
2019-03-15T01:12:33.719Z,45.70
2019-03-15T01:15:02.623Z,45.70
2019-03-15T01:17:31.464Z,45.80
2019-03-15T01:20:00.419Z,45.80
2019-03-15T01:22:29.330Z,45.80
2019-03-15T01:24:58.158Z,45.80
2019-03-15T01:27:26.974Z,45.80
2019-03-15T01:29:55.890Z,45.80
2019-03-15T01:32:24.794Z,45.90
2019-03-15T01:34:53.638Z,45.80
2019-03-15T01:37:22.474Z,45.70
2019-03-15T01:39:51.379Z,45.80
2019-03-15T01:42:20.205Z,45.80
2019-03-15T01:44:49.034Z,45.80
2019-03-15T01:47:17.873Z,45.30
2019-03-15T01:49:46.695Z,45.80
2019-03-15T01:52:15.611Z,45.80
2019-03-15T01:54:44.435Z,45.80
2019-03-15T01:57:13.353Z,45.80
2019-03-15T01:59:42.171Z,45.70
2019-03-15T02:02:11.095Z,45.70
2019-03-15T02:04:39.914Z,45.60
2019-03-15T02:07:09.280Z,45.60
2019-03-15T02:09:38.339Z,45.70
2019-03-15T02:12:07.148Z,45.60
2019-03-15T02:14:35.990Z,45.60
2019-03-15T02:17:04.891Z,45.60
2019-03-15T02:19:33.730Z,45.60
2019-03-15T02:22:02.570Z,45.50
2019-03-15T02:24:31.418Z,45.50
2019-03-15T02:27:00.326Z,45.50
2019-03-15T02:29:29.159Z,45.40
2019-03-15T02:31:58.063Z,45.50
2019-03-15T02:34:27.497Z,45.40
2019-03-15T02:36:56.503Z,45.40
2019-03-15T02:39:25.332Z,45.40
2019-03-15T02:41:54.176Z,45.40
2019-03-15T02:44:23.006Z,45.40
2019-03-15T02:46:52.468Z,45.40
2019-03-15T02:49:21.592Z,45.40
2019-03-15T02:51:50.432Z,45.40
2019-03-15T02:54:19.266Z,45.30
2019-03-15T02:56:48.184Z,45.30
2019-03-15T02:59:17.032Z,45.20
2019-03-15T03:01:45.938Z,45.20
2019-03-15T03:04:14.933Z,45.20
2019-03-15T03:06:43.912Z,45.20
2019-03-15T03:09:12.755Z,45.20
2019-03-15T03:11:41.656Z,45.20
2019-03-15T03:14:10.499Z,45.10
2019-03-15T03:16:39.323Z,45.10
2019-03-15T03:19:08.258Z,45.10
2019-03-15T03:21:37.095Z,45.10
2019-03-15T03:24:05.939Z,45.00
2019-03-15T03:26:34.766Z,45.10
2019-03-15T03:29:03.747Z,45.10
2019-03-15T03:31:32.663Z,45.00
2019-03-15T03:34:01.581Z,45.00
2019-03-15T03:36:30.423Z,45.10
2019-03-15T03:38:59.256Z,45.10
2019-03-15T03:41:28.778Z,45.10
2019-03-15T03:43:57.663Z,45.10
2019-03-15T03:46:27.338Z,45.10
2019-03-15T03:48:56.395Z,45.10
2019-03-15T03:51:25.338Z,45.10
2019-03-15T03:53:54.267Z,45.10
2019-03-15T03:56:23.249Z,45.10
2019-03-15T03:58:52.172Z,45.00
2019-03-15T04:01:21.083Z,45.00
2019-03-15T04:03:50.057Z,45.00
2019-03-15T04:06:19.290Z,45.00
2019-03-15T04:08:48.168Z,45.00
2019-03-15T04:11:17.031Z,45.00
2019-03-15T04:13:45.853Z,45.00
2019-03-15T04:16:14.766Z,45.00
2019-03-15T04:18:43.608Z,45.10
2019-03-15T04:21:12.464Z,45.10
2019-03-15T04:23:41.335Z,45.10
2019-03-15T04:26:10.226Z,45.10
2019-03-15T04:28:39.139Z,45.00
2019-03-15T04:31:07.975Z,45.00
2019-03-15T04:33:36.826Z,45.00
2019-03-15T04:36:05.811Z,45.10
2019-03-15T04:38:34.647Z,45.10
2019-03-15T04:41:03.579Z,45.10
2019-03-15T04:43:32.407Z,45.10
2019-03-15T04:46:01.331Z,45.00
2019-03-15T04:48:30.155Z,45.40
2019-03-15T04:50:59.067Z,45.00
2019-03-15T04:53:28.187Z,45.00
2019-03-15T04:55:57.207Z,45.00
2019-03-15T04:58:26.118Z,45.00
2019-03-15T05:00:54.966Z,45.00
2019-03-15T05:03:23.861Z,44.90
2019-03-15T05:06:02.603Z,44.90
2019-03-15T05:08:23.346Z,44.80
2019-03-15T05:10:52.259Z,44.90
2019-03-15T05:13:21.082Z,44.80
2019-03-15T05:15:50.066Z,44.90
2019-03-15T05:18:18.951Z,44.90
2019-03-15T05:20:47.937Z,44.80
2019-03-15T05:23:16.867Z,44.80
2019-03-15T05:25:45.844Z,44.90
2019-03-15T05:28:14.686Z,44.80
2019-03-15T05:30:43.518Z,44.80
2019-03-15T05:33:12.363Z,44.90
2019-03-15T05:35:41.205Z,44.80
2019-03-15T05:38:10.027Z,44.90
2019-03-15T05:40:38.953Z,44.80
2019-03-15T05:43:07.774Z,44.80
2019-03-15T05:45:36.706Z,44.80
2019-03-15T05:48:05.594Z,44.80
2019-03-15T05:50:34.596Z,45.40
2019-03-15T05:53:03.419Z,44.90
2019-03-15T05:55:32.335Z,44.80
2019-03-15T05:58:01.320Z,44.80
2019-03-15T06:00:30.222Z,44.80
2019-03-15T06:02:59.145Z,44.80
2019-03-15T06:05:28.050Z,44.80
2019-03-15T06:07:56.915Z,44.80
2019-03-15T06:10:25.821Z,44.80
2019-03-15T06:12:54.663Z,44.80
2019-03-15T06:15:23.567Z,44.80
2019-03-15T06:17:52.476Z,44.80
2019-03-15T06:20:21.388Z,44.80
2019-03-15T06:22:50.245Z,44.80
2019-03-15T06:25:19.184Z,44.70
2019-03-15T06:27:48.172Z,44.80
2019-03-15T06:30:17.270Z,44.70
2019-03-15T06:32:46.192Z,44.70
2019-03-15T06:35:15.162Z,44.80
2019-03-15T06:37:44.006Z,44.80
2019-03-15T06:40:13.828Z,44.90
2019-03-15T06:42:43.018Z,44.90
2019-03-15T06:45:11.941Z,44.80
2019-03-15T06:47:40.853Z,44.80
2019-03-15T06:50:09.922Z,44.80
2019-03-15T06:52:38.835Z,44.80
2019-03-15T06:55:07.861Z,45.40
2019-03-15T06:57:36.766Z,44.80
2019-03-15T07:00:06.435Z,45.00
2019-03-15T07:02:35.342Z,44.80
2019-03-15T07:05:04.610Z,44.90
2019-03-15T07:07:33.467Z,44.80
2019-03-15T07:10:02.787Z,44.80
2019-03-15T07:12:31.815Z,44.80
2019-03-15T07:15:00.659Z,44.90
2019-03-15T07:17:29.490Z,44.80
2019-03-15T07:19:58.415Z,44.80
2019-03-15T07:22:27.413Z,44.80
2019-03-15T07:24:56.292Z,44.80
2019-03-15T07:27:25.115Z,44.80
2019-03-15T07:29:53.981Z,44.80
2019-03-15T07:32:22.835Z,45.50
2019-03-15T07:34:51.760Z,44.80
2019-03-15T07:37:21.476Z,44.80
2019-03-15T07:39:50.544Z,44.80
2019-03-15T07:42:19.456Z,44.80
2019-03-15T07:44:49.137Z,44.90
2019-03-15T07:47:18.109Z,44.90
2019-03-15T07:49:46.958Z,44.90
2019-03-15T07:52:15.795Z,44.80
2019-03-15T07:54:44.636Z,44.80
2019-03-15T07:57:13.558Z,45.10
2019-03-15T07:59:42.415Z,45.30
2019-03-15T08:02:11.327Z,45.20
2019-03-15T08:04:40.168Z,45.10
2019-03-15T08:07:09.074Z,45.10
2019-03-15T08:09:37.916Z,45.20
2019-03-15T08:12:06.887Z,45.30
2019-03-15T08:14:35.743Z,45.20
2019-03-15T08:17:05.638Z,45.30
2019-03-15T08:19:34.500Z,45.00
2019-03-15T08:22:03.422Z,45.30
2019-03-15T08:24:32.262Z,45.30
2019-03-15T08:27:01.203Z,45.20
2019-03-15T08:29:30.043Z,45.30
2019-03-15T08:31:58.970Z,45.50
2019-03-15T08:34:27.798Z,45.60
2019-03-15T08:36:56.648Z,45.70
2019-03-15T08:39:25.476Z,45.50
2019-03-15T08:41:54.451Z,45.60
2019-03-15T08:44:23.288Z,45.60
2019-03-15T08:46:52.202Z,45.50
2019-03-15T08:49:21.023Z,45.60
2019-03-15T08:52:03.101Z,45.60
2019-03-15T08:54:20.570Z,45.80
2019-03-15T08:56:49.506Z,46.10
2019-03-15T08:59:37.558Z,46.20
2019-03-15T09:02:06.494Z,46.10
2019-03-15T09:04:35.386Z,46.20
2019-03-15T09:07:04.387Z,45.90
2019-03-15T09:09:35.766Z,45.40
2019-03-15T09:12:04.001Z,44.60
2019-03-15T09:14:32.830Z,44.10
2019-03-15T09:17:01.662Z,43.80
2019-03-15T09:19:30.503Z,44.40
2019-03-15T09:22:00.766Z,44.10
2019-03-15T09:24:29.771Z,43.60
2019-03-15T09:26:58.674Z,43.60
2019-03-15T09:29:27.532Z,43.80
2019-03-15T09:32:06.154Z,43.90
2019-03-15T09:34:27.075Z,44.00
2019-03-15T09:36:56.054Z,44.10
2019-03-15T09:39:24.989Z,43.90
2019-03-15T09:41:53.898Z,44.20
2019-03-15T09:44:22.745Z,44.30
2019-03-15T09:46:51.654Z,44.50
2019-03-15T09:49:20.655Z,45.40
2019-03-15T09:51:49.627Z,45.70
2019-03-15T09:54:18.543Z,48.00
2019-03-15T09:56:47.365Z,49.80
2019-03-15T09:59:19.291Z,50.00
2019-03-15T10:01:46.902Z,49.90
2019-03-15T10:04:27.859Z,49.90
2019-03-15T10:06:56.771Z,49.60
2019-03-15T10:09:25.622Z,49.50
2019-03-15T10:11:56.430Z,49.20
2019-03-15T10:14:25.078Z,49.00
2019-03-15T10:16:53.974Z,48.80
2019-03-15T10:19:22.832Z,48.80
2019-03-15T10:21:51.734Z,48.80
2019-03-15T10:24:20.584Z,48.70
2019-03-15T10:26:49.403Z,48.50
2019-03-15T10:29:19.650Z,48.50
2019-03-15T10:31:48.910Z,48.60
2019-03-15T10:34:17.823Z,48.90
2019-03-15T10:36:46.660Z,48.70
2019-03-15T10:39:15.484Z,48.90
2019-03-15T10:41:44.338Z,49.10
2019-03-15T10:44:13.179Z,49.00
2019-03-15T10:46:42.118Z,49.00
2019-03-15T10:49:10.967Z,49.20
2019-03-15T10:51:39.947Z,49.40
2019-03-15T10:54:08.957Z,49.10
2019-03-15T10:56:37.807Z,49.40
2019-03-15T10:59:06.724Z,49.50
2019-03-15T11:01:35.652Z,49.50
2019-03-15T11:04:04.659Z,49.40
2019-03-15T11:06:33.586Z,49.40
2019-03-15T11:09:02.658Z,49.40
2019-03-15T11:11:31.590Z,49.40
2019-03-15T11:14:00.436Z,49.40
2019-03-15T11:16:29.294Z,50.10
2019-03-15T11:18:58.169Z,49.50
2019-03-15T11:21:27.082Z,49.80
2019-03-15T11:23:56.110Z,50.00
2019-03-15T11:26:24.950Z,50.00
2019-03-15T11:28:53.815Z,50.00
2019-03-15T11:31:22.800Z,49.90
2019-03-15T11:33:51.719Z,50.20
2019-03-15T11:36:20.579Z,49.70
2019-03-15T11:38:49.528Z,49.70
2019-03-15T11:41:18.414Z,49.70
2019-03-15T11:43:47.331Z,49.50
2019-03-15T11:46:16.613Z,49.40
2019-03-15T11:48:45.610Z,49.30
2019-03-15T11:51:14.599Z,49.20
2019-03-15T11:53:43.512Z,49.20
2019-03-15T11:56:12.359Z,49.10
2019-03-15T11:58:41.193Z,48.90
2019-03-15T12:01:10.047Z,48.90
2019-03-15T12:03:52.134Z,48.80
2019-03-15T12:06:09.694Z,48.70
2019-03-15T12:08:38.543Z,48.60
2019-03-15T12:11:07.426Z,48.70
2019-03-15T12:13:36.271Z,49.40
2019-03-15T12:16:05.211Z,48.80
2019-03-15T12:18:34.059Z,48.40
2019-03-15T12:21:02.908Z,49.10
2019-03-15T12:23:31.925Z,49.30
2019-03-15T12:26:00.743Z,49.30
2019-03-15T12:28:29.599Z,49.40
2019-03-15T12:30:58.527Z,49.60
2019-03-15T12:33:27.363Z,49.60
2019-03-15T12:35:56.227Z,49.60
2019-03-15T12:38:25.139Z,49.70
2019-03-15T12:40:54.246Z,49.70
2019-03-15T12:43:23.086Z,49.80
2019-03-15T12:45:51.930Z,49.90
2019-03-15T12:48:20.775Z,49.80
2019-03-15T12:50:49.698Z,50.00
2019-03-15T12:53:18.535Z,50.00
2019-03-15T12:55:47.460Z,50.10
2019-03-15T12:58:16.342Z,50.00
2019-03-15T13:00:45.184Z,50.10
2019-03-15T13:03:14.034Z,50.10
2019-03-15T13:05:42.959Z,50.10
2019-03-15T13:08:11.887Z,50.10
2019-03-15T13:10:40.819Z,50.10
2019-03-15T13:13:09.679Z,49.90
2019-03-15T13:15:38.583Z,50.00
2019-03-15T13:18:07.510Z,50.10
2019-03-15T13:20:36.376Z,50.00
2019-03-15T13:23:05.297Z,50.10
2019-03-15T13:25:34.222Z,50.20
2019-03-15T13:28:03.146Z,50.30
2019-03-15T13:30:32.091Z,50.30
2019-03-15T13:33:01.078Z,50.20
2019-03-15T13:35:30.133Z,50.20
2019-03-15T13:37:58.979Z,50.20
2019-03-15T13:40:27.858Z,50.70
2019-03-15T13:42:56.696Z,50.00
2019-03-15T13:45:25.623Z,50.00
2019-03-15T13:47:54.542Z,50.00
2019-03-15T13:50:23.484Z,49.90
2019-03-15T13:52:52.327Z,49.80
2019-03-15T13:55:21.182Z,50.00
2019-03-15T13:57:50.032Z,50.10
2019-03-15T14:00:19.138Z,50.20
2019-03-15T14:02:48.420Z,50.30
2019-03-15T14:05:17.395Z,50.50
2019-03-15T14:07:46.251Z,50.60
2019-03-15T14:10:15.257Z,50.70
2019-03-15T14:12:44.262Z,50.80
2019-03-15T14:15:13.194Z,51.40
2019-03-15T14:17:42.138Z,50.70
2019-03-15T14:20:11.156Z,50.80
2019-03-15T14:22:40.102Z,50.60
2019-03-15T14:25:10.253Z,50.40
2019-03-15T14:27:39.163Z,50.50
2019-03-15T14:30:09.677Z,50.40
2019-03-15T14:32:38.511Z,50.60
2019-03-15T14:35:08.170Z,50.40
2019-03-15T14:37:37.306Z,50.20
2019-03-15T14:40:06.593Z,50.10
2019-03-15T14:42:35.794Z,50.10
2019-03-15T14:45:05.737Z,50.10
2019-03-15T14:47:34.695Z,50.20
2019-03-15T14:50:03.961Z,50.10
2019-03-15T14:52:32.942Z,50.10
2019-03-15T14:55:01.938Z,50.00
2019-03-15T14:57:30.928Z,50.00
2019-03-15T14:59:59.791Z,50.00
2019-03-15T15:02:28.792Z,50.00
2019-03-15T15:04:57.647Z,50.00
2019-03-15T15:07:26.574Z,50.00
2019-03-15T15:09:55.502Z,50.10
2019-03-15T15:12:24.358Z,50.00
2019-03-15T15:14:53.227Z,50.00
2019-03-15T15:17:22.148Z,50.10
2019-03-15T15:19:50.992Z,50.10
2019-03-15T15:22:19.839Z,50.00
2019-03-15T15:24:48.763Z,50.00
2019-03-15T15:27:17.695Z,50.00
2019-03-15T15:29:46.627Z,50.00
2019-03-15T15:32:15.539Z,49.90
2019-03-15T15:34:44.537Z,49.90
2019-03-15T15:37:13.454Z,49.90
2019-03-15T15:39:42.317Z,49.80
2019-03-15T15:42:11.155Z,49.80
2019-03-15T15:44:40.034Z,49.70
2019-03-15T15:47:09.071Z,49.60
2019-03-15T15:49:38.089Z,49.60
2019-03-15T15:52:07.086Z,49.60
2019-03-15T15:54:35.950Z,49.60
2019-03-15T15:57:04.938Z,49.60
2019-03-15T15:59:33.784Z,49.60
2019-03-15T16:02:02.659Z,49.70
2019-03-15T16:04:31.583Z,49.40
2019-03-15T16:07:00.568Z,49.30
2019-03-15T16:09:29.444Z,49.30
2019-03-15T16:11:58.499Z,49.40
2019-03-15T16:14:27.413Z,49.40
2019-03-15T16:16:56.271Z,49.40
2019-03-15T16:19:25.187Z,49.40
2019-03-15T16:21:54.103Z,49.40
2019-03-15T16:24:22.988Z,49.40
2019-03-15T16:26:51.893Z,49.40
2019-03-15T16:29:20.903Z,49.40
2019-03-15T16:31:49.859Z,49.60
2019-03-15T16:34:21.927Z,49.50
2019-03-15T16:36:49.584Z,49.40
2019-03-15T16:39:18.418Z,49.50
2019-03-15T16:41:47.379Z,49.40
2019-03-15T16:44:16.326Z,49.40
2019-03-15T16:46:45.314Z,49.40
2019-03-15T16:49:14.436Z,49.50
2019-03-15T16:51:43.431Z,49.50
2019-03-15T16:54:12.424Z,49.50
2019-03-15T16:56:41.262Z,49.50
2019-03-15T16:59:10.114Z,49.40
2019-03-15T17:01:39.111Z,49.40
2019-03-15T17:04:08.132Z,49.40
2019-03-15T17:06:37.034Z,49.30
2019-03-15T17:09:06.779Z,49.40
2019-03-15T17:11:35.627Z,49.30
2019-03-15T17:14:04.731Z,49.30
2019-03-15T17:16:33.579Z,49.30
2019-03-15T17:19:02.563Z,49.30
2019-03-15T17:21:31.579Z,49.30
2019-03-15T17:24:00.499Z,49.40
2019-03-15T17:26:29.433Z,49.40
2019-03-15T17:28:59.060Z,49.30
2019-03-15T17:31:27.999Z,49.40
2019-03-15T17:33:56.863Z,49.40
2019-03-15T17:36:25.711Z,49.30
2019-03-15T17:38:54.636Z,49.30
2019-03-15T17:41:23.478Z,50.00
2019-03-15T17:43:52.318Z,49.40
2019-03-15T17:46:21.321Z,49.30
2019-03-15T17:48:50.223Z,49.30
2019-03-15T17:51:20.802Z,49.30
2019-03-15T17:53:49.657Z,49.40
2019-03-15T17:56:18.563Z,49.40
2019-03-15T17:58:47.434Z,49.30
2019-03-15T18:01:16.344Z,49.30
2019-03-15T18:04:04.532Z,49.20
2019-03-15T18:06:33.407Z,49.20
2019-03-15T18:09:02.323Z,49.30
2019-03-15T18:11:31.223Z,49.60
2019-03-15T18:14:00.074Z,49.60
2019-03-15T18:16:29.057Z,49.30
2019-03-15T18:18:57.899Z,49.10
2019-03-15T18:21:26.795Z,49.10
2019-03-15T18:23:55.790Z,48.80
2019-03-15T18:26:24.707Z,48.70
2019-03-15T18:28:53.585Z,48.60
2019-03-15T18:31:22.482Z,48.50
2019-03-15T18:33:51.470Z,48.80
2019-03-15T18:36:20.406Z,48.40
2019-03-15T18:38:49.315Z,48.40
2019-03-15T18:41:18.234Z,48.20
2019-03-15T18:43:47.066Z,48.20
2019-03-15T18:46:15.986Z,48.10
2019-03-15T18:48:44.963Z,48.10
2019-03-15T18:51:13.811Z,48.20
2019-03-15T18:53:42.648Z,48.30
2019-03-15T18:56:11.499Z,48.40
2019-03-15T18:58:40.477Z,48.40
2019-03-15T19:01:09.322Z,48.50
2019-03-15T19:03:38.302Z,48.70
2019-03-15T19:06:07.245Z,48.60
2019-03-15T19:08:36.097Z,48.60
2019-03-15T19:11:05.087Z,48.60
2019-03-15T19:13:33.926Z,48.60
2019-03-15T19:16:02.782Z,48.60
2019-03-15T19:18:31.718Z,48.80
2019-03-15T19:21:00.559Z,48.80
2019-03-15T19:23:29.465Z,48.80
2019-03-15T19:25:58.331Z,48.70
2019-03-15T19:28:27.175Z,49.40
2019-03-15T19:30:56.186Z,48.70
2019-03-15T19:33:25.023Z,48.70
2019-03-15T19:35:53.871Z,48.80
2019-03-15T19:38:22.770Z,48.90
2019-03-15T19:40:51.698Z,48.80
2019-03-15T19:43:20.618Z,48.80
2019-03-15T19:45:49.454Z,48.80
2019-03-15T19:48:18.339Z,48.70
2019-03-15T19:50:47.307Z,48.60
2019-03-15T19:53:16.252Z,48.20
2019-03-15T19:55:46.250Z,47.80
2019-03-15T19:58:17.061Z,47.80
2019-03-15T20:00:47.221Z,47.70
2019-03-15T20:03:18.100Z,47.80
2019-03-15T20:05:49.865Z,47.80
2019-03-15T20:08:20.187Z,47.80
2019-03-15T20:10:51.192Z,47.80
2019-03-15T20:13:21.758Z,47.80
2019-03-15T20:15:52.228Z,47.70
2019-03-15T20:18:25.412Z,47.80
2019-03-15T20:20:56.712Z,47.90
2019-03-15T20:23:27.019Z,47.80
2019-03-15T20:25:57.098Z,47.80
2019-03-15T20:28:29.527Z,47.80
2019-03-15T20:33:59.102Z,47.80
2019-03-15T20:36:28.167Z,47.90
2019-03-15T20:38:57.233Z,47.90
2019-03-15T20:41:26.275Z,47.90
2019-03-15T20:43:55.345Z,48.00
2019-03-15T20:46:35.158Z,47.90
2019-03-15T20:48:55.107Z,47.90
2019-03-15T20:51:24.118Z,48.00
2019-03-15T20:53:53.000Z,47.80
2019-03-15T20:56:21.949Z,47.80
2019-03-15T20:58:50.929Z,47.90
2019-03-15T21:01:19.900Z,47.70
2019-03-15T21:03:55.855Z,47.80
2019-03-15T21:06:19.645Z,47.80
2019-03-15T21:08:48.609Z,47.70
2019-03-15T21:11:17.634Z,47.80
2019-03-15T21:13:46.593Z,47.80
2019-03-15T21:16:18.132Z,47.80
2019-03-15T21:18:46.305Z,47.80
2019-03-15T21:21:15.353Z,47.90
2019-03-15T21:23:44.219Z,47.80
2019-03-15T21:26:13.172Z,47.80
2019-03-15T21:28:42.138Z,47.80
2019-03-15T21:31:11.091Z,47.80
2019-03-15T21:33:40.093Z,47.80
2019-03-15T21:36:09.129Z,47.90
2019-03-15T21:38:47.632Z,47.80
2019-03-15T21:41:08.857Z,47.80
2019-03-15T21:43:37.892Z,47.80
2019-03-15T21:46:06.859Z,47.80
2019-03-15T21:48:35.725Z,47.80
2019-03-15T21:51:04.782Z,47.80
2019-03-15T21:53:33.667Z,47.80
2019-03-15T21:56:02.679Z,47.80
2019-03-15T21:58:31.648Z,47.80
2019-03-15T22:01:02.735Z,47.80
2019-03-15T22:03:31.356Z,47.80
2019-03-15T22:06:00.402Z,47.70
2019-03-15T22:08:29.369Z,47.80
2019-03-15T22:10:58.376Z,47.80
2019-03-15T22:13:27.389Z,47.80
2019-03-15T22:15:56.357Z,47.80
2019-03-15T22:18:25.302Z,47.70
2019-03-15T22:20:54.365Z,47.70
2019-03-15T22:23:23.333Z,47.70
2019-03-15T22:25:52.289Z,47.60
2019-03-15T22:28:21.257Z,47.60
2019-03-15T22:30:50.292Z,47.70
2019-03-15T22:33:19.309Z,47.70
2019-03-15T22:35:48.369Z,47.70
2019-03-15T22:38:26.082Z,47.60
2019-03-15T22:40:48.019Z,47.60
2019-03-15T22:43:17.238Z,47.60
2019-03-15T22:45:46.233Z,47.50
2019-03-15T22:48:15.191Z,47.50
2019-03-15T22:50:44.228Z,47.60
2019-03-15T22:53:13.257Z,47.50
2019-03-15T22:59:11.623Z,47.60
2019-03-15T23:01:41.392Z,47.60
2019-03-15T23:04:11.598Z,47.70
2019-03-15T23:06:41.497Z,47.70
2019-03-15T23:09:11.507Z,47.60
2019-03-15T23:11:41.554Z,47.70
2019-03-15T23:14:11.405Z,47.70
2019-03-15T23:16:41.411Z,47.60
2019-03-15T23:19:11.346Z,47.50
2019-03-15T23:21:41.377Z,47.50
2019-03-15T23:24:11.298Z,47.40
2019-03-15T23:26:41.206Z,47.40
2019-03-15T23:29:11.579Z,47.30
2019-03-15T23:31:43.903Z,47.40
2019-03-15T23:34:14.906Z,47.30
2019-03-15T23:36:44.936Z,47.30
2019-03-15T23:39:17.289Z,47.20
2019-03-15T23:41:47.323Z,47.20
2019-03-15T23:44:17.287Z,47.10
2019-03-15T23:46:47.480Z,47.10
2019-03-15T23:49:17.738Z,47.10
2019-03-15T23:51:47.770Z,47.10
2019-03-15T23:54:17.901Z,47.00
2019-03-15T23:56:47.950Z,47.00
2019-03-15T23:59:18.272Z,47.00
